Apgar, Montana
Current Conditions -  °F | °C
As of 8:55 AM on Friday 19 Dec 2014 (Local Time) from KGPI Reporting Station
Light Snow Light Snow  
Wind Chill: 31°   Ceiling: 4400
Heat Index: 31°   Visibility: 1.2mi
Dew Point: 31°   Wind: 0mph
Humidity: 100%   Direction: NA
Pressure: 29.9"   Gusts: NA
Location:  48.5033°N, 113.981°W
Report Text: KGPI 191555Z 00000KT 1 1/4SM -SN BR FEW009 OVC044 M01/M01 A2990 RMK AO2 SNB49 SLP152 P0000 T10061006
Loading
Personal Weather Stations






























Interactive Weather Map New forecast layout! Learn more

10-Day Weather Forecast

Advertisements
Track Severe Weather on mobile